Portada
METAR-TAF:

METAR-TAF

Aeropuertos :

Ghat, Libia

latitud: 25-08N, longitud: 010-09E, altitud: 699 m

METAR: falta

Hora: 01:46 (23:46 UTC)

Pronóstico

El informe se hizo hace 3 horas y 46 minutos, a las 20:00 UTC
Pronóstico válido del 12 a las 21 UTC al 13 a las 06 UTC
Viento 2 kt con dirección variable
Visibilidad: 8000 m

TAF: HLGT 122000Z 1221/1306 VRB02KT 8000 NSC

Observaciones y pronósticos meteorológicos de más de 4000 aeropuertos (mensajes METAR y TAF).

Los puntos amarillos y rojos representan las estaciones disponibles.

Ponga el ratón en el punto deseado para ver el nombre de la estación.

Haga clic para ver las observaciones y los pronósticos meteorológicos.

Para cambiar el mapa : haga clic en los botones verdes con una cruz de color negro para hacer un zoom, en el botón verde con un guión para alejar o en las flechas verdes para mapas adyacentes.


METAR-TAF: